Gooderham, Canada
Current Conditions -  °F | °C
As of 8:05 PM on Wednesday 17 Dec 2014 (Local Time) from CYQA Reporting Station
Overcast Overcast  
Wind Chill: 22°   Ceiling: 2500
Heat Index: 30°   Visibility: 9mi
Dew Point: 27°   Wind: 9mph
Humidity: 86%   Direction: 290°WNW
Pressure: 29.86"   Gusts: NA
Location:  44.9°N, 78.38°W
Report Text: CYQA 180105Z AUTO 29008KT 260V320 9SM FEW013 BKN025 OVC032 M01/M03 A2986 RMK SLP124
Loading
Personal Weather Stations






























Interactive Weather Map New forecast layout! Learn more

10-Day Weather Forecast

Advertisements
Track Severe Weather on mobile